Observations for OLBIA COSTA SMERALD, Italy (LIEO)

LIEO 191320Z 08011KT 9999 FEW030 29/21 Q1014
LIEO 191250Z 07009KT 040V110 9999 FEW030 28/21 Q1014
LIEO 191220Z 07009KT 040V110 CAVOK 28/21 Q1015  
LIEO 191150Z 07010KT 030V100 9999 SCT030 28/20 Q1015
LIEO 191120Z 06008KT 030V110 9999 SCT030 27/21 Q1015
LIEO 191050Z 05009KT 020V080 9999 SCT030 28/20 Q1015
LIEO 191020Z 02006KT 300V080 9999 SCT030 28/20 Q1015
LIEO 190950Z VRB06KT 9999 SCT030 28/19 Q1015
LIEO 190920Z 34008KT 310V090 9999 BKN025 28/19 Q1015
LIEO 190850Z 34008KT 280V020 9999 BKN025 26/20 Q1016
LIEO 190820Z 35008KT 310V050 9999 SCT025 25/20 Q1016
LIEO 190750Z 24006KT 9999 SCT025 24/19 Q1015
LIEO 190720Z 23011KT CAVOK 24/19 Q1015  
LIEO 190650Z 23007KT CAVOK 23/19 Q1015  
LIEO 190620Z 24011KT CAVOK 21/19 Q1015  
LIEO 190550Z 19002KT CAVOK 20/18 Q1015  
LIEO 190520Z 26003KT 220V280 CAVOK 20/18 Q1014  
LIEO 190450Z 23008KT CAVOK 20/18 Q1014  
LIEO 190420Z 22007KT 180V240 CAVOK 21/18 Q1014  
LIEO 190320Z 21004KT CAVOK 20/19 Q1014  
LIEO 190250Z 23003KT CAVOK 20/19 Q1014  
LIEO 190150Z 21004KT 140V230 CAVOK 21/19 Q1014  
LIEO 190120Z 22005KT CAVOK 21/20 Q1015  
LIEO 190050Z 24005KT 9999 FEW040 21/20 Q1015
LIEO 190020Z VRB02KT 9999 FEW040 21/20 Q1015
LIEO 182350Z VRB02KT CAVOK 20/19 Q1015  
LIEO 182320Z 25003KT CAVOK 20/19 Q1015  
LIEO 182250Z 23004KT CAVOK 21/19 Q1015  
LIEO 182220Z VRB01KT CAVOK 21/19 Q1015  
LIEO 182150Z 19001KT CAVOK 21/19 Q1015  
LIEO 182120Z VRB02KT CAVOK 21/20 Q1015  
LIEO 182050Z VRB02KT CAVOK 22/20 Q1015  
LIEO 182020Z 22003KT CAVOK 23/20 Q1015  
LIEO 181950Z VRB01KT CAVOK 24/20 Q1015  
LIEO 181920Z 35004KT 300V020 CAVOK 24/21 Q1015  
LIEO 181850Z 06002KT CAVOK 24/21 Q1015  
LIEO 181820Z 06003KT CAVOK 24/21 Q1014  
LIEO 181750Z 05004KT CAVOK 24/21 Q1014  
LIEO 181720Z 05004KT 030V090 CAVOK 25/21 Q1014  
LIEO 181650Z 04006KT CAVOK 26/21 Q1014  
LIEO 181620Z 05006KT CAVOK 26/21 Q1014  
LIEO 181550Z 05008KT CAVOK 26/21 Q1014  
LIEO 181520Z 05010KT 020V080 CAVOK 27/21 Q1014  
LIEO 181450Z 06011KT 020V090 CAVOK 27/21 Q1014  
LIEO 181420Z 05011KT CAVOK 27/21 Q1014  
LIEO 181350Z 07010KT CAVOK 28/20 Q1014  
LIEO 181320Z 05010KT 020V080 CAVOK 28/20 Q1014  
LIEO 181250Z 04009KT 010V080 CAVOK 28/20 Q1014